createdAt,value
2018-11-26T00:00:43.814Z,1003.91
2018-11-26T00:01:43.804Z,1003.93
2018-11-26T00:02:43.801Z,1003.91
2018-11-26T00:03:43.798Z,1003.88
2018-11-26T00:04:43.771Z,1003.90
2018-11-26T00:05:43.762Z,1003.93
2018-11-26T00:06:43.750Z,1003.94
2018-11-26T00:07:43.740Z,1004.06
2018-11-26T00:08:43.752Z,1003.98
2018-11-26T00:09:43.716Z,1003.97
2018-11-26T00:10:43.704Z,1003.98
2018-11-26T00:11:43.695Z,1004.02
2018-11-26T00:12:43.684Z,1004.04
2018-11-26T00:13:43.706Z,1004.00
2018-11-26T00:14:43.668Z,1004.01
2018-11-26T00:15:43.653Z,1004.00
2018-11-26T00:16:43.639Z,1003.98
2018-11-26T00:17:43.629Z,1003.95
2018-11-26T00:18:43.617Z,1003.99
2018-11-26T00:19:43.642Z,1004.01
2018-11-26T00:20:43.600Z,1004.03
2018-11-26T00:21:43.582Z,1003.99
2018-11-26T00:22:43.572Z,1004.04
2018-11-26T00:23:43.561Z,1004.06
2018-11-26T00:24:43.547Z,1004.04
2018-11-26T00:25:43.553Z,1004.07
2018-11-26T00:26:43.535Z,1004.03
2018-11-26T00:27:43.516Z,1004.03
2018-11-26T00:28:43.506Z,1004.04
2018-11-26T00:29:43.493Z,1004.05
2018-11-26T00:30:43.514Z,1003.97
2018-11-26T00:31:43.473Z,1003.98
2018-11-26T00:32:43.468Z,1003.96
2018-11-26T00:33:43.448Z,1003.97
2018-11-26T00:34:43.437Z,1003.98
2018-11-26T00:35:43.426Z,1003.95
2018-11-26T00:36:43.446Z,1003.93
2018-11-26T00:37:43.402Z,1003.92
2018-11-26T00:38:43.403Z,1003.89
2018-11-26T00:39:43.381Z,1003.92
2018-11-26T00:40:43.369Z,1003.88
2018-11-26T00:41:43.358Z,1003.92
2018-11-26T00:42:43.384Z,1003.88
2018-11-26T00:43:43.338Z,1003.87
2018-11-26T00:44:43.337Z,1003.90
2018-11-26T00:45:43.315Z,1003.91
2018-11-26T00:46:43.303Z,1003.85
2018-11-26T00:47:43.293Z,1003.86
2018-11-26T00:48:43.295Z,1003.87
2018-11-26T00:49:43.271Z,1003.84
2018-11-26T00:50:43.281Z,1003.85
2018-11-26T00:51:43.248Z,1003.85
2018-11-26T00:52:43.237Z,1003.86
2018-11-26T00:53:43.227Z,1003.89
2018-11-26T00:54:43.223Z,1003.89
2018-11-26T00:55:43.216Z,1003.88
2018-11-26T00:56:43.199Z,1003.90
2018-11-26T00:57:43.181Z,1003.90
2018-11-26T00:58:43.171Z,1003.88
2018-11-26T00:59:43.161Z,1003.90
2018-11-26T01:00:43.182Z,1003.90
2018-11-26T01:01:43.138Z,1003.93
2018-11-26T01:02:43.135Z,1003.90
2018-11-26T01:03:43.116Z,1003.92
2018-11-26T01:04:43.109Z,1003.93
2018-11-26T01:05:43.094Z,1003.92
2018-11-26T01:06:43.096Z,1003.94
2018-11-26T01:07:43.070Z,1003.94
2018-11-26T01:08:43.067Z,1004.00
2018-11-26T01:09:43.049Z,1003.94
2018-11-26T01:10:43.048Z,1003.94
2018-11-26T01:11:43.038Z,1003.97
2018-11-26T01:12:43.016Z,1004.03
2018-11-26T01:13:43.004Z,1004.04
2018-11-26T01:14:42.997Z,1004.02
2018-11-26T01:15:42.997Z,1004.02
2018-11-26T01:16:43.017Z,1004.02
2018-11-26T01:17:42.959Z,1004.04
2018-11-26T01:18:42.949Z,1004.04
2018-11-26T01:19:42.939Z,1003.98
2018-11-26T01:20:42.935Z,1004.01
2018-11-26T01:21:42.915Z,1003.96
2018-11-26T01:22:42.917Z,1003.97
2018-11-26T01:23:42.894Z,1003.96
2018-11-26T01:24:42.882Z,1003.96
2018-11-26T01:25:42.871Z,1003.95
2018-11-26T01:26:42.882Z,1003.91
2018-11-26T01:27:42.849Z,1003.93
2018-11-26T01:28:42.837Z,1003.91
2018-11-26T01:29:42.827Z,1003.91
2018-11-26T01:30:42.816Z,1003.91
2018-11-26T01:31:42.840Z,1003.88
2018-11-26T01:32:42.802Z,1003.88
2018-11-26T01:33:42.783Z,1003.85
2018-11-26T01:34:42.770Z,1003.84
2018-11-26T01:35:42.771Z,1003.87
2018-11-26T01:36:42.750Z,1003.88
2018-11-26T01:37:42.751Z,1003.88
2018-11-26T01:38:42.736Z,1003.91
2018-11-26T01:39:42.750Z,1003.93
2018-11-26T01:40:42.707Z,1003.84
2018-11-26T01:41:42.696Z,1003.87
2018-11-26T01:42:42.685Z,1003.86
2018-11-26T01:43:42.672Z,1003.85
2018-11-26T01:44:42.665Z,1003.85
2018-11-26T01:45:42.662Z,1003.87
2018-11-26T01:46:42.639Z,1003.87
2018-11-26T01:47:42.627Z,1003.86
2018-11-26T01:48:42.649Z,1003.84
2018-11-26T01:49:42.606Z,1003.84
2018-11-26T01:50:42.604Z,1003.83
2018-11-26T01:51:42.584Z,1003.86
2018-11-26T01:52:42.580Z,1003.79
2018-11-26T01:53:42.562Z,1003.82
2018-11-26T01:54:42.584Z,1003.87
2018-11-26T01:55:42.539Z,1003.87
2018-11-26T01:56:42.538Z,1003.91
2018-11-26T01:57:42.518Z,1003.90
2018-11-26T01:58:42.504Z,1003.90
2018-11-26T01:59:42.495Z,1003.91
2018-11-26T02:00:42.494Z,1003.90
2018-11-26T02:01:42.473Z,1003.88
2018-11-26T02:02:42.483Z,1003.90
2018-11-26T02:03:42.483Z,1003.85
2018-11-26T02:04:42.437Z,1003.87
2018-11-26T02:05:42.428Z,1003.85
2018-11-26T02:06:42.420Z,1003.87
2018-11-26T02:07:42.405Z,1003.89
2018-11-26T02:08:42.403Z,1003.88
2018-11-26T02:09:42.418Z,1003.92
2018-11-26T02:10:42.373Z,1003.92
2018-11-26T02:11:42.361Z,1003.92
2018-11-26T02:12:42.354Z,1003.94
2018-11-26T02:13:42.339Z,1003.91
2018-11-26T02:14:42.335Z,1003.93
2018-11-26T02:15:42.349Z,1003.90
2018-11-26T02:16:42.305Z,1003.88
2018-11-26T02:17:42.294Z,1003.91
2018-11-26T02:18:42.286Z,1003.94
2018-11-26T02:19:42.272Z,1003.95
2018-11-26T02:20:42.267Z,1003.94
2018-11-26T02:21:42.260Z,1003.98
2018-11-26T02:22:42.238Z,1003.99
2018-11-26T02:23:42.227Z,1003.93
2018-11-26T02:24:42.219Z,1003.95
2018-11-26T02:25:42.217Z,1003.88
2018-11-26T02:26:42.245Z,1003.91
2018-11-26T02:27:42.182Z,1003.93
2018-11-26T02:28:42.223Z,1003.91
2018-11-26T02:29:42.161Z,1003.91
2018-11-26T02:30:42.149Z,1003.93
2018-11-26T02:31:42.138Z,1003.93
2018-11-26T02:32:42.170Z,1003.96
2018-11-26T02:33:42.117Z,1003.93
2018-11-26T02:34:42.106Z,1003.94
2018-11-26T02:35:42.096Z,1003.92
2018-11-26T02:36:42.083Z,1003.91
2018-11-26T02:37:42.072Z,1003.94
2018-11-26T02:38:42.079Z,1003.88
2018-11-26T02:39:42.048Z,1003.90
2018-11-26T02:40:42.039Z,1003.93
2018-11-26T02:41:42.028Z,1003.89
2018-11-26T02:42:42.017Z,1003.93
2018-11-26T02:43:42.039Z,1003.91
2018-11-26T02:44:42.008Z,1003.86
2018-11-26T02:45:41.984Z,1003.84
2018-11-26T02:46:41.972Z,1003.84
2018-11-26T02:47:41.961Z,1003.87
2018-11-26T02:48:41.950Z,1003.86
2018-11-26T02:49:41.951Z,1003.85
2018-11-26T02:50:41.939Z,1003.83
2018-11-26T02:51:41.917Z,1003.80
2018-11-26T02:52:41.904Z,1003.82
2018-11-26T02:53:41.895Z,1003.78
2018-11-26T02:54:41.897Z,1003.79
2018-11-26T02:55:41.872Z,1003.84
2018-11-26T02:56:41.869Z,1003.77
2018-11-26T02:57:41.850Z,1003.81
2018-11-26T02:58:41.849Z,1003.80
2018-11-26T02:59:41.861Z,1003.80
2018-11-26T03:00:41.817Z,1003.82
2018-11-26T03:01:41.807Z,1003.80
2018-11-26T03:02:41.801Z,1003.80
2018-11-26T03:03:41.783Z,1003.78
2018-11-26T03:04:41.774Z,1003.78
2018-11-26T03:05:41.807Z,1003.77
2018-11-26T03:06:41.749Z,1003.79
2018-11-26T03:07:41.740Z,1003.79
2018-11-26T03:08:41.738Z,1003.79
2018-11-26T03:09:41.718Z,1003.82
2018-11-26T03:10:41.711Z,1003.80
2018-11-26T03:11:41.731Z,1003.77
2018-11-26T03:12:41.685Z,1003.82
2018-11-26T03:13:41.675Z,1003.83
2018-11-26T03:14:41.668Z,1003.84
2018-11-26T03:15:41.652Z,1003.87
2018-11-26T03:16:41.640Z,1003.89
2018-11-26T03:17:41.660Z,1003.89
2018-11-26T03:18:41.618Z,1003.88
2018-11-26T03:19:41.607Z,1003.80
2018-11-26T03:20:41.603Z,1003.85
2018-11-26T03:21:41.585Z,1003.82
2018-11-26T03:22:41.574Z,1003.76
2018-11-26T03:23:41.574Z,1003.82
2018-11-26T03:24:41.591Z,1003.78
2018-11-26T03:25:41.554Z,1003.78
2018-11-26T03:26:41.537Z,1003.74
2018-11-26T03:27:41.518Z,1003.80
2018-11-26T03:28:41.508Z,1003.74
2018-11-26T03:29:41.501Z,1003.81
2018-11-26T03:30:41.516Z,1003.81
2018-11-26T03:31:41.478Z,1003.81
2018-11-26T03:32:41.485Z,1003.82
2018-11-26T03:33:41.453Z,1003.77
2018-11-26T03:34:41.441Z,1003.86
2018-11-26T03:35:41.431Z,1003.82
2018-11-26T03:36:41.455Z,1003.84
2018-11-26T03:37:41.407Z,1003.88
2018-11-26T03:38:41.404Z,1003.89
2018-11-26T03:39:41.385Z,1003.94
2018-11-26T03:40:41.373Z,1003.93
2018-11-26T03:41:41.362Z,1003.94
2018-11-26T03:42:41.365Z,1003.96
2018-11-26T03:43:41.343Z,1003.95
2018-11-26T03:44:41.337Z,1003.93
2018-11-26T03:45:41.318Z,1003.95
2018-11-26T03:46:41.307Z,1003.99
2018-11-26T03:47:41.331Z,1003.92
2018-11-26T03:48:41.283Z,1003.94
2018-11-26T03:49:41.273Z,1003.87
2018-11-26T03:50:41.270Z,1003.91
2018-11-26T03:51:41.252Z,1003.89
2018-11-26T03:52:41.239Z,1003.90
2018-11-26T03:53:41.241Z,1003.89
2018-11-26T03:54:41.219Z,1003.89
2018-11-26T03:55:41.210Z,1003.94
2018-11-26T03:56:41.203Z,1003.92
2018-11-26T03:57:41.196Z,1003.94
2018-11-26T03:58:41.172Z,1003.95
2018-11-26T03:59:41.162Z,1003.91
2018-11-26T04:00:41.151Z,1003.93
2018-11-26T04:01:41.138Z,1003.96
2018-11-26T04:02:41.173Z,1003.95
2018-11-26T04:03:41.117Z,1003.95
2018-11-26T04:04:41.107Z,1003.94
2018-11-26T04:05:41.095Z,1003.93
2018-11-26T04:06:41.088Z,1003.96
2018-11-26T04:07:41.071Z,1003.99
2018-11-26T04:08:41.080Z,1003.91
2018-11-26T04:09:41.052Z,1004.04
2018-11-26T04:10:41.053Z,1003.99
2018-11-26T04:11:41.028Z,1004.08
2018-11-26T04:12:41.017Z,1004.03
2018-11-26T04:13:41.050Z,1004.07
2018-11-26T04:14:41.047Z,1004.04
2018-11-26T04:15:40.984Z,1004.06
2018-11-26T04:16:40.972Z,1004.13
2018-11-26T04:17:40.961Z,1004.07
2018-11-26T04:18:40.950Z,1004.09
2018-11-26T04:19:40.939Z,1004.07
2018-11-26T04:20:40.971Z,1004.12
2018-11-26T04:21:40.922Z,1004.11
2018-11-26T04:22:40.906Z,1004.10
2018-11-26T04:23:40.893Z,1004.13
2018-11-26T04:24:40.884Z,1004.09
2018-11-26T04:25:40.871Z,1004.11
2018-11-26T04:26:40.885Z,1004.09
2018-11-26T04:27:40.849Z,1004.10
2018-11-26T04:28:40.839Z,1004.10
2018-11-26T04:29:40.848Z,1004.13
2018-11-26T04:30:40.818Z,1004.15
2018-11-26T04:31:40.807Z,1004.11
2018-11-26T04:32:40.835Z,1004.08
2018-11-26T04:33:40.785Z,1004.11
2018-11-26T04:34:40.772Z,1004.09
2018-11-26T04:35:40.760Z,1004.09
2018-11-26T04:36:40.750Z,1004.13
2018-11-26T04:37:40.742Z,1004.12
2018-11-26T04:38:40.766Z,1004.12
2018-11-26T04:39:40.718Z,1004.13
2018-11-26T04:40:40.705Z,1004.13
2018-11-26T04:41:40.695Z,1004.09
2018-11-26T04:42:40.683Z,1004.11
2018-11-26T04:43:40.674Z,1004.14
2018-11-26T04:44:40.700Z,1004.09
2018-11-26T04:45:40.650Z,1004.07
2018-11-26T04:46:40.637Z,1004.07
2018-11-26T04:47:40.626Z,1004.10
2018-11-26T04:48:40.617Z,1004.12
2018-11-26T04:49:40.605Z,1004.11
2018-11-26T04:50:40.618Z,1004.10
2018-11-26T04:51:40.582Z,1004.11
2018-11-26T04:52:40.577Z,1004.17
2018-11-26T04:53:40.572Z,1004.12
2018-11-26T04:54:40.555Z,1004.15
2018-11-26T04:55:40.538Z,1004.12
2018-11-26T04:56:40.534Z,1004.10
2018-11-26T04:57:42.625Z,1004.12
2018-11-26T04:58:40.517Z,1004.16
2018-11-26T04:59:40.495Z,1004.18
2018-11-26T05:00:40.487Z,1004.17
2018-11-26T05:01:40.469Z,1004.22
2018-11-26T05:02:40.486Z,1004.21
2018-11-26T05:03:40.449Z,1004.23
2018-11-26T05:04:40.439Z,1004.19
2018-11-26T05:05:40.427Z,1004.19
2018-11-26T05:06:40.415Z,1004.17
2018-11-26T05:07:40.420Z,1004.22
2018-11-26T05:08:40.402Z,1004.19
2018-11-26T05:09:40.382Z,1004.19
2018-11-26T05:10:40.373Z,1004.16
2018-11-26T05:11:40.371Z,1004.18
2018-11-26T05:12:40.362Z,1004.24
2018-11-26T05:13:40.338Z,1004.22
2018-11-26T05:14:40.338Z,1004.26
2018-11-26T05:15:40.315Z,1004.20
2018-11-26T05:16:40.305Z,1004.20
2018-11-26T05:17:40.304Z,1004.19
2018-11-26T05:18:40.325Z,1004.16
2018-11-26T05:19:40.270Z,1004.17
2018-11-26T05:20:40.268Z,1004.18
2018-11-26T05:21:40.249Z,1004.23
2018-11-26T05:22:40.238Z,1004.25
2018-11-26T05:23:40.226Z,1004.27
2018-11-26T05:24:40.226Z,1004.30
2018-11-26T05:25:40.239Z,1004.31
2018-11-26T05:26:40.210Z,1004.37
2018-11-26T05:27:40.210Z,1004.38
2018-11-26T05:28:40.170Z,1004.39
2018-11-26T05:29:40.158Z,1004.37
2018-11-26T05:30:40.148Z,1004.36
2018-11-26T05:31:40.149Z,1004.43
2018-11-26T05:32:40.180Z,1004.42
2018-11-26T05:33:40.116Z,1004.41
2018-11-26T05:34:40.103Z,1004.44
2018-11-26T05:35:40.092Z,1004.44
2018-11-26T05:36:40.114Z,1004.46
2018-11-26T05:37:40.070Z,1004.49
2018-11-26T05:38:40.067Z,1004.44
2018-11-26T05:39:40.047Z,1004.45
2018-11-26T05:40:40.038Z,1004.41
2018-11-26T05:41:40.027Z,1004.45
2018-11-26T05:42:40.045Z,1004.36
2018-11-26T05:43:40.007Z,1004.37
2018-11-26T05:44:39.999Z,1004.39
2018-11-26T05:45:39.981Z,1004.40
2018-11-26T05:46:39.971Z,1004.34
2018-11-26T05:47:39.958Z,1004.43
2018-11-26T05:48:39.964Z,1004.40
2018-11-26T05:49:39.937Z,1004.40
2018-11-26T05:50:39.932Z,1004.41
2018-11-26T05:51:39.914Z,1004.40
2018-11-26T05:52:39.909Z,1004.40
2018-11-26T05:53:39.923Z,1004.39
2018-11-26T05:54:39.883Z,1004.41
2018-11-26T05:55:39.870Z,1004.40
2018-11-26T05:56:39.869Z,1004.42
2018-11-26T05:57:39.848Z,1004.48
2018-11-26T05:58:39.837Z,1004.52
2018-11-26T05:59:39.858Z,1004.48
2018-11-26T06:00:39.815Z,1004.52
2018-11-26T06:01:39.802Z,1004.51
2018-11-26T06:02:40.668Z,1004.51
2018-11-26T06:03:44.663Z,1004.50
2018-11-26T06:05:55.709Z,1004.46
2018-11-26T06:06:54.466Z,1004.51
2018-11-26T06:07:54.457Z,1004.53
2018-11-26T06:08:54.445Z,1004.56
2018-11-26T06:09:54.467Z,1004.52
2018-11-26T06:10:54.424Z,1004.51
2018-11-26T06:11:54.420Z,1004.52
2018-11-26T06:12:54.403Z,1004.49
2018-11-26T06:13:54.394Z,1004.51
2018-11-26T06:14:54.390Z,1004.51
2018-11-26T06:15:54.410Z,1004.55
2018-11-26T06:16:54.358Z,1004.55
2018-11-26T06:17:54.349Z,1004.52
2018-11-26T06:18:54.336Z,1004.58
2018-11-26T06:19:54.333Z,1004.50
2018-11-26T06:20:54.313Z,1004.53
2018-11-26T06:21:54.316Z,1004.55
2018-11-26T06:22:54.295Z,1004.58
2018-11-26T06:23:54.283Z,1004.58
2018-11-26T06:24:54.271Z,1004.59
2018-11-26T06:25:54.278Z,1004.58
2018-11-26T06:26:54.262Z,1004.61
2018-11-26T06:27:54.238Z,1004.62
2018-11-26T06:28:54.227Z,1004.58
2018-11-26T06:29:54.220Z,1004.63
2018-11-26T06:30:54.206Z,1004.59
2018-11-26T06:31:54.214Z,1004.56
2018-11-26T06:32:54.184Z,1004.57
2018-11-26T06:33:54.174Z,1004.57
2018-11-26T06:34:54.164Z,1004.52
2018-11-26T06:35:54.152Z,1004.54
2018-11-26T06:36:54.152Z,1004.58
2018-11-26T06:37:54.240Z,1004.56
2018-11-26T06:38:54.119Z,1004.53
2018-11-26T06:39:54.107Z,1004.53
2018-11-26T06:40:54.095Z,1004.57
2018-11-26T06:41:54.114Z,1004.59
2018-11-26T06:42:54.072Z,1004.59
2018-11-26T06:43:54.070Z,1004.57
2018-11-26T06:44:54.053Z,1004.59
2018-11-26T06:45:54.042Z,1004.57
2018-11-26T06:46:54.033Z,1004.63
2018-11-26T06:47:54.033Z,1004.60
2018-11-26T06:48:54.009Z,1004.64
2018-11-26T06:49:54.015Z,1004.65
2018-11-26T06:50:53.985Z,1004.61
2018-11-26T06:51:53.986Z,1004.59
2018-11-26T06:52:53.965Z,1004.60
2018-11-26T06:53:53.965Z,1004.67
2018-11-26T06:54:53.942Z,1004.62
2018-11-26T06:55:53.980Z,1004.65
2018-11-26T06:56:53.920Z,1004.67
2018-11-26T06:57:53.910Z,1004.78
2018-11-26T06:58:53.898Z,1004.72
2018-11-26T07:02:45.092Z,1004.74
2018-11-26T07:03:21.311Z,1004.79
2018-11-26T07:04:21.311Z,1004.82
2018-11-26T07:05:21.291Z,1004.82
2018-11-26T07:06:21.278Z,1004.82
2018-11-26T07:07:21.300Z,1004.90
2018-11-26T07:08:21.255Z,1004.87
2018-11-26T07:09:21.249Z,1004.88
2018-11-26T07:10:21.238Z,1004.92
2018-11-26T07:11:21.221Z,1004.96
2018-11-26T07:12:21.212Z,1004.97
2018-11-26T07:13:21.212Z,1004.97
2018-11-26T07:14:21.193Z,1004.97
2018-11-26T07:15:21.188Z,1005.02
2018-11-26T07:16:21.167Z,1005.03
2018-11-26T07:17:21.158Z,1005.01
2018-11-26T07:18:21.219Z,1005.01
2018-11-26T07:19:21.136Z,1005.04
2018-11-26T07:20:21.122Z,1005.05
2018-11-26T07:21:21.124Z,1005.16
2018-11-26T07:22:21.100Z,1005.09
2018-11-26T07:23:21.088Z,1005.02
2018-11-26T07:24:21.120Z,1005.05
2018-11-26T07:25:21.070Z,1004.99
2018-11-26T07:26:21.056Z,1005.05
2018-11-26T07:27:21.053Z,1005.08
2018-11-26T07:28:21.036Z,1005.04
2018-11-26T07:29:24.213Z,1005.02
2018-11-26T07:30:21.035Z,1005.04
2018-11-26T07:31:21.000Z,1004.96
2018-11-26T07:32:20.989Z,1004.97
2018-11-26T07:33:20.985Z,1005.00
2018-11-26T07:34:20.968Z,1004.99
2018-11-26T07:35:20.956Z,1005.00
2018-11-26T07:36:20.966Z,1005.02
2018-11-26T07:37:20.933Z,1005.04
2018-11-26T07:38:20.923Z,1005.11
2018-11-26T07:39:20.917Z,1005.07
2018-11-26T07:40:20.901Z,1005.09
2018-11-26T07:41:20.890Z,1005.12
2018-11-26T07:42:20.893Z,1005.09
2018-11-26T07:43:20.868Z,1005.12
2018-11-26T07:44:20.856Z,1005.12
2018-11-26T07:45:20.857Z,1005.20
2018-11-26T07:46:20.855Z,1005.10
2018-11-26T07:47:20.823Z,1005.14
2018-11-26T07:48:20.813Z,1005.24
2018-11-26T07:49:20.802Z,1005.22
2018-11-26T07:50:20.791Z,1005.26
2018-11-26T07:51:20.785Z,1005.18
2018-11-26T07:52:20.800Z,1005.17
2018-11-26T07:53:20.756Z,1005.19
2018-11-26T07:54:20.746Z,1005.22
2018-11-26T07:55:20.734Z,1005.22
2018-11-26T07:56:20.723Z,1005.13
2018-11-26T07:57:20.719Z,1005.20
2018-11-26T07:58:20.714Z,1005.25
2018-11-26T07:59:20.692Z,1005.21
2018-11-26T08:00:20.680Z,1005.22
2018-11-26T08:01:20.669Z,1005.25
2018-11-26T08:02:20.671Z,1005.25
2018-11-26T08:03:20.668Z,1005.34
2018-11-26T08:04:20.639Z,1005.29
2018-11-26T08:05:20.625Z,1005.27
2018-11-26T08:06:20.614Z,1005.25
2018-11-26T08:07:20.602Z,1005.26
2018-11-26T08:08:20.624Z,1005.28
2018-11-26T08:09:20.587Z,1005.29
2018-11-26T08:10:20.568Z,1005.26
2018-11-26T08:11:20.557Z,1005.28
2018-11-26T08:12:20.548Z,1005.28
2018-11-26T08:13:20.535Z,1005.28
2018-11-26T08:14:20.559Z,1005.30
2018-11-26T08:15:20.521Z,1005.27
2018-11-26T08:16:20.502Z,1005.29
2018-11-26T08:17:20.492Z,1005.27
2018-11-26T08:18:20.481Z,1005.31
2018-11-26T08:19:20.470Z,1005.28
2018-11-26T08:20:20.491Z,1005.28
2018-11-26T08:21:20.456Z,1005.26
2018-11-26T08:22:20.436Z,1005.28
2018-11-26T08:23:20.424Z,1005.32
2018-11-26T08:24:20.413Z,1005.31
2018-11-26T08:25:20.403Z,1005.24
2018-11-26T08:26:20.402Z,1005.38
2018-11-26T08:27:20.394Z,1005.37
2018-11-26T08:28:20.372Z,1005.30
2018-11-26T08:29:20.357Z,1005.30
2018-11-26T08:30:20.347Z,1005.30
2018-11-26T08:31:20.349Z,1005.36
2018-11-26T08:32:20.325Z,1005.43
2018-11-26T08:33:20.322Z,1005.41
2018-11-26T08:34:20.303Z,1005.38
2018-11-26T08:35:20.296Z,1005.36
2018-11-26T08:36:20.293Z,1005.41
2018-11-26T08:37:20.271Z,1005.39
2018-11-26T08:38:20.271Z,1005.41
2018-11-26T08:39:20.253Z,1005.39
2018-11-26T08:40:20.237Z,1005.41
2018-11-26T08:41:20.224Z,1005.42
2018-11-26T08:42:20.215Z,1005.40
2018-11-26T08:43:20.271Z,1005.41
2018-11-26T08:44:20.191Z,1005.41
2018-11-26T08:45:20.185Z,1005.38
2018-11-26T08:46:20.170Z,1005.45
2018-11-26T08:47:20.159Z,1005.44
2018-11-26T08:48:20.182Z,1005.37
2018-11-26T08:49:20.156Z,1005.37
2018-11-26T08:50:20.125Z,1005.34
2018-11-26T08:51:20.120Z,1005.39
2018-11-26T08:52:20.104Z,1005.35
2018-11-26T08:53:20.106Z,1005.38
2018-11-26T08:54:20.081Z,1005.35
2018-11-26T08:55:20.104Z,1005.36
2018-11-26T08:56:20.059Z,1005.40
2018-11-26T08:57:20.056Z,1005.40
2018-11-26T08:58:20.035Z,1005.39
2018-11-26T08:59:20.024Z,1005.38
2018-11-26T09:00:20.039Z,1005.43
2018-11-26T09:01:20.033Z,1005.41
2018-11-26T09:02:19.997Z,1005.46
2018-11-26T09:03:19.985Z,1005.47
2018-11-26T09:04:19.971Z,1005.42
2018-11-26T09:05:24.250Z,1005.42
2018-11-26T09:06:19.947Z,1005.43
2018-11-26T09:07:20.082Z,1005.43
2018-11-26T09:08:19.928Z,1005.45
2018-11-26T09:09:19.921Z,1005.42
2018-11-26T09:10:19.902Z,1005.43
2018-11-26T09:11:19.892Z,1005.42
2018-11-26T09:12:19.881Z,1005.42
2018-11-26T09:13:19.882Z,1005.46
2018-11-26T09:14:19.856Z,1005.42
2018-11-26T09:15:19.853Z,1005.45
2018-11-26T09:16:19.867Z,1005.44
2018-11-26T09:17:19.825Z,1005.45
2018-11-26T09:18:19.814Z,1005.47
2018-11-26T09:19:19.802Z,1005.43
2018-11-26T09:20:19.826Z,1005.38
2018-11-26T09:21:19.787Z,1005.45
2018-11-26T09:22:19.780Z,1005.41
2018-11-26T09:23:19.757Z,1005.42
2018-11-26T09:24:19.744Z,1005.41
2018-11-26T09:25:19.735Z,1005.43
2018-11-26T09:26:19.722Z,1005.42
2018-11-26T09:27:19.756Z,1005.36
2018-11-26T09:28:19.702Z,1005.40
2018-11-26T09:29:19.691Z,1005.39
2018-11-26T09:30:19.679Z,1005.41
2018-11-26T09:31:19.669Z,1005.43
2018-11-26T09:32:19.658Z,1005.44
2018-11-26T09:33:19.688Z,1005.41
2018-11-26T09:34:19.637Z,1005.41
2018-11-26T09:35:19.623Z,1005.41
2018-11-26T09:36:19.613Z,1005.47
2018-11-26T09:37:19.602Z,1005.46
2018-11-26T09:38:19.593Z,1005.47
2018-11-26T09:39:19.598Z,1005.51
2018-11-26T09:40:19.602Z,1005.48
2018-11-26T09:41:19.559Z,1005.51
2018-11-26T09:42:19.546Z,1005.51
2018-11-26T09:43:19.534Z,1005.52
2018-11-26T09:44:19.525Z,1005.52
2018-11-26T09:45:19.517Z,1005.53
2018-11-26T09:46:19.535Z,1005.54
2018-11-26T09:47:19.498Z,1005.57
2018-11-26T09:48:19.483Z,1005.58
2018-11-26T09:49:19.470Z,1005.55
2018-11-26T09:50:19.457Z,1005.55
2018-11-26T09:51:19.451Z,1005.55
2018-11-26T09:52:19.448Z,1005.56
2018-11-26T09:53:19.425Z,1005.52
2018-11-26T09:54:25.767Z,1005.57
2018-11-26T09:55:20.404Z,1005.53
2018-11-26T09:56:19.390Z,1005.52
2018-11-26T09:57:19.399Z,1005.46
2018-11-26T09:58:19.406Z,1005.52
2018-11-26T09:59:19.358Z,1005.51
2018-11-26T10:00:19.348Z,1005.50
2018-11-26T10:01:19.335Z,1005.50
2018-11-26T10:02:19.323Z,1005.52
2018-11-26T10:03:19.319Z,1005.52
2018-11-26T10:04:19.337Z,1005.50
2018-11-26T10:05:19.292Z,1005.49
2018-11-26T10:06:19.281Z,1005.51
2018-11-26T10:07:19.270Z,1005.57
2018-11-26T10:08:19.257Z,1005.54
2018-11-26T10:09:19.255Z,1005.54
2018-11-26T10:10:19.246Z,1005.58
2018-11-26T10:11:19.226Z,1005.56
2018-11-26T10:12:19.214Z,1005.59
2018-11-26T10:13:19.203Z,1005.55
2018-11-26T10:14:19.191Z,1005.54
2018-11-26T10:15:19.207Z,1005.51
2018-11-26T10:16:19.171Z,1005.56
2018-11-26T10:17:19.158Z,1005.54
2018-11-26T10:18:19.149Z,1005.54
2018-11-26T10:19:19.137Z,1005.60
2018-11-26T10:20:19.127Z,1005.52
2018-11-26T10:21:19.152Z,1005.58
2018-11-26T10:22:19.101Z,1005.56
2018-11-26T10:23:19.091Z,1005.57
2018-11-26T10:24:19.078Z,1005.50
2018-11-26T10:25:19.069Z,1005.50
2018-11-26T10:26:19.057Z,1005.46
2018-11-26T10:27:19.081Z,1005.49
2018-11-26T10:28:19.036Z,1005.46
2018-11-26T10:29:19.023Z,1005.46
2018-11-26T10:30:19.012Z,1005.45
2018-11-26T10:31:19.000Z,1005.47
2018-11-26T10:32:18.990Z,1005.51
2018-11-26T10:33:19.002Z,1005.48
2018-11-26T10:34:18.968Z,1005.47
2018-11-26T10:35:18.969Z,1005.47
2018-11-26T10:36:18.946Z,1005.45
2018-11-26T10:37:18.935Z,1005.49
2018-11-26T10:38:18.964Z,1005.42
2018-11-26T10:39:18.921Z,1005.45
2018-11-26T10:40:18.902Z,1005.44
2018-11-26T10:41:18.891Z,1005.41
2018-11-26T10:42:18.879Z,1005.39
2018-11-26T10:43:18.869Z,1005.40
2018-11-26T10:44:18.868Z,1005.41
2018-11-26T10:45:18.865Z,1005.41
2018-11-26T10:46:18.848Z,1005.43
2018-11-26T10:47:18.823Z,1005.39
2018-11-26T10:48:18.814Z,1005.37
2018-11-26T10:49:18.816Z,1005.36
2018-11-26T10:50:18.789Z,1005.36
2018-11-26T10:51:18.806Z,1005.35
2018-11-26T10:52:18.769Z,1005.38
2018-11-26T10:53:18.757Z,1005.31
2018-11-26T10:54:18.747Z,1005.41
2018-11-26T10:55:18.736Z,1005.40
2018-11-26T10:56:18.725Z,1005.34
2018-11-26T10:57:18.733Z,1005.34
2018-11-26T10:58:18.704Z,1005.34
2018-11-26T10:59:18.690Z,1005.31
2018-11-26T11:00:18.678Z,1005.34
2018-11-26T11:01:18.669Z,1005.32
2018-11-26T11:02:18.676Z,1005.31
2018-11-26T11:03:18.651Z,1005.30
2018-11-26T11:04:18.637Z,1005.29
2018-11-26T11:05:18.623Z,1005.27
2018-11-26T11:06:18.612Z,1005.28
2018-11-26T11:07:18.601Z,1005.29
2018-11-26T11:08:18.735Z,1005.25
2018-11-26T11:09:18.586Z,1005.28
2018-11-26T11:10:18.569Z,1005.30
2018-11-26T11:11:23.178Z,1005.29
2018-11-26T11:12:19.552Z,1005.29
2018-11-26T11:13:18.544Z,1005.27
2018-11-26T11:14:18.536Z,1005.30
2018-11-26T11:15:18.518Z,1005.29
2018-11-26T11:16:18.502Z,1005.29
2018-11-26T11:17:18.496Z,1005.28
2018-11-26T11:18:18.493Z,1005.31
2018-11-26T11:19:18.469Z,1005.28
2018-11-26T11:20:18.458Z,1005.29
2018-11-26T11:21:18.452Z,1005.30
2018-11-26T11:22:18.434Z,1005.29
2018-11-26T11:23:18.435Z,1005.32
2018-11-26T11:24:18.412Z,1005.35
2018-11-26T11:25:18.404Z,1005.35
2018-11-26T11:26:18.391Z,1005.33
2018-11-26T11:27:18.389Z,1005.32
2018-11-26T11:28:18.387Z,1005.35
2018-11-26T11:29:18.356Z,1005.35
2018-11-26T11:30:18.346Z,1005.36
2018-11-26T11:31:18.334Z,1005.37
2018-11-26T11:32:18.322Z,1005.40
2018-11-26T11:34:18.304Z,1005.34
2018-11-26T11:35:18.324Z,1005.35
2018-11-26T11:36:18.277Z,1005.39
2018-11-26T11:37:18.270Z,1005.40
2018-11-26T11:38:18.257Z,1005.36
2018-11-26T11:39:18.253Z,1005.33
2018-11-26T11:40:18.232Z,1005.33
2018-11-26T11:41:18.234Z,1005.34
2018-11-26T11:42:18.211Z,1005.37
2018-11-26T11:43:18.201Z,1005.29
2018-11-26T11:44:18.190Z,1005.38
2018-11-26T11:45:18.182Z,1005.33
2018-11-26T11:46:18.178Z,1005.38
2018-11-26T11:47:18.167Z,1005.29
2018-11-26T11:48:18.146Z,1005.31
2018-11-26T11:49:18.132Z,1005.30
2018-11-26T11:50:18.121Z,1005.28
2018-11-26T11:51:19.075Z,1005.24
2018-11-26T11:52:18.112Z,1005.26
2018-11-26T11:53:18.100Z,1005.23
2018-11-26T11:54:18.076Z,1005.23
2018-11-26T11:55:18.069Z,1005.24
2018-11-26T11:56:18.065Z,1005.26
2018-11-26T11:57:18.063Z,1005.28
2018-11-26T11:58:18.045Z,1005.29
2018-11-26T11:59:18.053Z,1005.26
2018-11-26T12:00:18.010Z,1005.25
2018-11-26T12:01:18.003Z,1005.27
2018-11-26T12:02:17.988Z,1005.27
2018-11-26T12:03:17.985Z,1005.20
2018-11-26T12:04:17.968Z,1005.31
2018-11-26T12:05:17.968Z,1005.26
2018-11-26T12:06:17.943Z,1005.24
2018-11-26T12:07:17.934Z,1005.28
2018-11-26T12:08:17.958Z,1005.27
2018-11-26T12:09:17.918Z,1005.27
2018-11-26T12:10:17.899Z,1005.29